Flight Track Log - Related Links

Times and Time Zones

All times are in EDT time to prevent confusion due to time zone crossing. See the EJA831 flight status page for this flight to view local times or setup timezone preferences in your user account.

Time Position Orientation Groundspeed Altitude Reporting Facility
EDT Latitude Longitude Course Direction KTS MPH feet Rate Location/Type
Sun 07:23:37 PM 37.7167 -122.2500 314° West 174 200 1,400  Level Northern Cal TRACON
Sun 07:24:37 PM 37.7667 -122.3167 314° West 254 292 4,000 1,600 Climbing Northern Cal TRACON
Sun 07:25:37 PM 37.8167 -122.3167 360° North 262 302 4,600 1,050 Climbing Northern Cal TRACON
Sun 07:26:37 PM 37.8167 -122.2333 90° East 236 272 6,100 2,700 Climbing Northern Cal TRACON
Sun 07:27:37 PM 37.8333 -122.1500 76° East 268 308 10,000 2,875 Climbing Northern Cal TRACON
Sun 07:29:01 PM 37.9142 -122.1189 17° North 265 305 13,000 2,276 Climbing Oakland Center
Sun 07:30:02 PM 37.9911 -122.1228 358° North 275 316 15,500 1,902 Climbing Oakland Center
Sun 07:31:04 PM 38.0978 -122.1283 358° North 309 356 16,900 1,403 Climbing Oakland Center
Sun 07:32:06 PM 38.1942 -122.1325 358° North 333 383 18,400 1,366 Climbing Oakland Center
Sun 07:33:07 PM 38.2889 -122.1381 357° North 342 394 19,700 1,561 Climbing Oakland Center
Sun 07:34:09 PM 38.3828 -122.1433 357° North 342 394 21,600 1,951 Climbing Oakland Center
Sun 07:35:10 PM 38.4708 -122.1481 358° North 325 374 23,700 1,659 Climbing Oakland Center
Sun 07:36:12 PM 38.5578 -122.1578 355° North 316 364 25,000 1,403 Climbing Oakland Center
Sun 07:37:14 PM 38.6672 -122.1775 352° North 330 380 26,600 1,366 Climbing Oakland Center
Sun 07:38:15 PM 38.7461 -122.1917 352° North 336 387 27,800 1,171 Climbing Oakland Center
Sun 07:39:17 PM 38.8603 -122.2122 352° North 343 395 29,000 976 Climbing Oakland Center
Sun 07:40:18 PM 38.9603 -122.2294 352° North 359 413 29,800 927 Climbing Oakland Center
Sun 07:41:20 PM 39.0603 -122.2483 352° North 361 415 30,900 1,016 Climbing Oakland Center
Sun 07:42:22 PM 39.1603 -122.2658 352° North 361 415 31,900 537 Climbing Oakland Center
Sun 07:43:23 PM 39.2608 -122.2842 352° North 364 419 32,000 49 Climbing Oakland Center
Sun 07:44:25 PM 39.3661 -122.3019 353° North 379 436 32,000  Level Oakland Center
Sun 07:45:27 PM 39.4864 -122.3236 352° North 385 443 32,000  Level Oakland Center
Sun 07:46:28 PM 39.5933 -122.3444 351° North 387 445 32,000  Level Oakland Center
Sun 07:47:30 PM 39.7011 -122.3622 353° North 390 449 32,000  Level Oakland Center
Sun 07:48:32 PM 39.8081 -122.3828 352° North 388 447 32,000  Level Oakland Center
Sun 07:49:33 PM 39.9158 -122.4025 352° North 390 449 32,000  Level Oakland Center
Sun 07:50:35 PM 40.0228 -122.4236 351° North 386 444 32,000  Level Oakland Center
Sun 07:51:36 PM 40.1347 -122.4464 351° North 395 455 32,000  Level Oakland Center
Sun 07:52:38 PM 40.2453 -122.4642 353° North 391 450 32,000  Level Oakland Center
Sun 07:53:40 PM 40.3539 -122.4833 352° North 393 452 32,000  Level Oakland Center
Sun 07:54:41 PM 40.4628 -122.5036 352° North 394 453 32,000  Level Oakland Center
Sun 07:55:43 PM 40.5931 -122.5269 352° North 394 453 32,000  Level Oakland Center
Sun 07:56:45 PM 40.7008 -122.5464 352° North 392 451 32,000  Level Oakland Center
Sun 07:57:46 PM 40.8086 -122.5678 351° North 391 450 32,000  Level Oakland Center
Sun 07:58:48 PM 40.9164 -122.5867 352° North 391 450 32,000  Level Oakland Center
Sun 07:59:50 PM 41.0228 -122.6069 352° North 388 447 32,000  Level Oakland Center
Sun 08:00:52 PM 41.1283 -122.6264 352° North 384 442 32,000  Level Oakland Center
Sun 08:01:53 PM 41.2344 -122.6472 352° North 384 442 32,000  Level Oakland Center
Sun 08:02:55 PM 41.3511 -122.6681 352° North 387 445 32,000  Level Oakland Center
Sun 08:03:56 PM 41.4547 -122.6894 351° North 380 437 32,000  Level Oakland Center
Sun 08:04:58 PM 41.5567 -122.7081 352° North 372 428 32,000  Level Oakland Center
Sun 08:06:00 PM 41.6608 -122.7278 352° North 375 432 32,000  Level Oakland Center
Sun 08:07:01 PM 41.7639 -122.7486 351° North 376 433 32,000  Level Oakland Center
Sun 08:08:03 PM 41.8675 -122.7692 352° North 376 433 32,000  Level Oakland Center
Sun 08:09:05 PM 41.9889 -122.7933 352° North 367 422 32,000  Level Oakland Center
Sun 08:10:06 PM 42.0897 -122.8119 352° North 366 421 32,000  Level Oakland Center
Sun 08:11:08 PM 42.1894 -122.8311 352° North 363 418 32,000  Level Oakland Center
Sun 08:12:09 PM 42.2889 -122.8519 351° North 361 415 32,000  Level Oakland Center
Sun 08:13:16 PM 42.3900 -122.8697 353° North 361 415 32,000 -94 Level Seattle Center
Sun 08:14:16 PM 42.4903 -122.8892 352° North 362 417 31,800 -1,041 Descending Seattle Center
Sun 08:15:17 PM 42.5925 -122.9089 352° North 369 425 29,900 -2,410 Descending Seattle Center
Sun 08:16:18 PM 42.7139 -122.9331 352° North 369 425 26,900 -2,459 Descending Seattle Center
Sun 08:17:19 PM 42.7958 -122.9497 352° North 359 413 24,900 -1,426 Descending Seattle Center
Sun 08:18:20 PM 42.8933 -122.9694 352° North 352 405 24,000 -1,180 Descending Seattle Center
Sun 08:19:21 PM 43.0097 -122.9931 352° North 351 404 22,500 -1,721 Descending Seattle Center
Sun 08:20:22 PM 43.1072 -123.0128 352° North 354 407 20,500 -2,331 Descending Seattle Center
Sun 08:21:22 PM 43.2061 -123.0319 352° North 358 412 17,800 -2,727 Descending Seattle Center
Sun 08:22:23 PM 43.2992 -123.0528 351° North 340 391 15,000 -2,705 Descending Seattle Center
Sun 08:23:24 PM 43.3922 -123.0722 351° North 337 388 12,300 -2,361 Descending Seattle Center
Sun 08:24:25 PM 43.4817 -123.0897 352° North 325 374 10,200 -1,328 Descending Seattle Center
Sun 08:25:26 PM 43.5714 -123.1083 351° North 325 374 9,600 -1,131 Descending Seattle Center
Sun 08:26:27 PM 43.6519 -123.1247 352° North 289 333 7,900 -1,770 Descending Seattle Center
Sun 08:27:28 PM 43.7300 -123.1297 357° North 280 322 6,000 -1,426 Descending Seattle Center
Sun 08:28:29 PM 43.8061 -123.1275 North 273 314 5,000 -492 Descending Seattle Center
Sun 08:29:30 PM 43.8819 -123.1181 North 273 314 5,000  Level Seattle Center
Sun 08:30:31 PM 43.9619 -123.1075 North 288 331 5,000  Level Seattle Center
Sun 08:31:32 PM 44.0406 -123.0958 North 286 329 5,000  Level Seattle Center
Sun 08:32:33 PM 44.1319 -123.0844 North 287 330 5,000 -98 Level Seattle Center
Sun 08:33:34 PM 44.2083 -123.0772 North 273 314 4,800 -492 Descending Seattle Center
Sun 08:34:35 PM 44.2808 -123.0728 North 247 284 4,000 -738 Descending Seattle Center
Sun 08:35:36 PM 44.3019 -123.1200 302° West 168 193 3,300 -496 Descending Seattle Center
Sun 08:36:36 PM 44.3011 -123.1828 269° West 160 184 3,000 -545 Descending Seattle Center
Sun 08:37:37 PM 44.2583 -123.2125 206° Southwest 174 200 2,200 -590 Descending Seattle Center
Sun 08:38:38 PM 44.2097 -123.2206 187° South 177 204 1,800 -541 Descending Seattle Center
Sun 08:39:39 PM 44.1711 -123.2194 179° South 133 153 1,100 -639 Descending Seattle Center
Sun 08:40:40 PM 44.1403 -123.2192 180° South 110 127 500 -393 Descending Seattle Center
Sun 08:41:41 PM 44.1206 -123.2178 177° South 87 100 300 -197 Descending Seattle Center

Login

Don't have an account? Register now (free) for customized features, flight alerts, and more!